Αναφορές Αεροδρομίων

 

KSJC - San Jose, California, USA
Distance from station: ΒΑ 14km
Ενημερώθηκε: 16/01/2021 10:53
Αίθριος
Αίθριος
 Ανεμος από calm
Ανεμος: Απνοια
Θερμοκρασία: 11°C
Σημείο Δρόσου: 8°C
Υγρασία: 82%
Βαρόμετρο: 1023.7 hPa
Clouds: Αίθριος
Visibility: 14 km
2021/01/16 08:53 KSJC 160853Z AUTO 00000KT 9SM CLR 11/08 A3023 RMK AO2 SLP235 T01060078 55000
KNUQ - Moffett Nas/Mtn, California, USA
Distance from station: Β 14km
Ενημερώθηκε: 16/01/2021 10:55
Αίθριος
Αίθριος
 Ανεμος από Δ
Ανεμος: Δ 9 km/h
Θερμοκρασία: 12°C
Σημείο Δρόσου: 8°C
Υγρασία: 77%
Βαρόμετρο: 1023.7 hPa
Clouds: Αίθριος
Visibility: 16 km
2021/01/16 08:55 KNUQ 160855Z AUTO 27005KT 10SM CLR 12/08 A3023 RMK AO2
 
KPAO - Palo Alto, California, USA
Distance from station: ΒΒΔ 23km
Ενημερώθηκε: 16/01/2021 06:47
NOT Current
Αίθριος
Αίθριος
 Ανεμος από varies
Ανεμος: varies 7 km/h
Θερμοκρασία: 12°C
Σημείο Δρόσου: 8°C
Υγρασία: 77%
Βαρόμετρο: 1024 hPa
Clouds: Αίθριος
Visibility: 16 km
2021/01/16 04:47 KPAO 160447Z VRB04KT 10SM SKC 12/08 A3024 RMK LAST
KRHV - San Jose/Reid, California, USA
Distance from station: ΑΒΑ 19km
Ενημερώθηκε: 16/01/2021 07:55
NOT Current
Μερικώς νεφελώδης
Μερικώς νεφελώδης
 Ανεμος από calm
Ανεμος: Απνοια
Θερμοκρασία: 12°C
Σημείο Δρόσου: 8°C
Υγρασία: 77%
Βαρόμετρο: 1024 hPa
Clouds: Μερικώς νεφελώδης
Visibility: 16 km
Cloud details: Μερικώς νεφελώδης 3048 m
2021/01/16 05:55 KRHV 160555Z 00000KT 10SM SCT100 12/08 A3024 RMK LAST
 
KOAK - Oakland, California, USA
Distance from station: ΒΒΔ 50km
Ενημερώθηκε: 16/01/2021 10:53
Few Clouds
Few Clouds
 Ανεμος από calm
Ανεμος: Απνοια
Θερμοκρασία: 13°C
Σημείο Δρόσου: 9°C
Υγρασία: 77%
Βαρόμετρο: 1023.7 hPa
Clouds: Few Clouds
Visibility: 16 km
Cloud details: Few Clouds 6096 m
2021/01/16 08:53 KOAK 160853Z 00000KT 10SM FEW200 13/09 A3023 RMK AO2 SLP237 T01280089 58001
KSQL - San Carlos Airpo, California, USA
Distance from station: ΒΔ 34km
Ενημερώθηκε: 16/01/2021 10:55
Αίθριος
Αίθριος
 Ανεμος από calm
Ανεμος: Απνοια
Θερμοκρασία: 12°C
Σημείο Δρόσου: 8°C
Υγρασία: 77%
Βαρόμετρο: 1024 hPa
Clouds: Αίθριος
Visibility: 16 km
2021/01/16 08:55 KSQL 160855Z AUTO 00000KT 10SM CLR 12/08 A3024 RMK AO2
 
KSFO - San Francisco, California, USA
Distance from station: ΒΔ 49km
Ενημερώθηκε: 16/01/2021 10:56
Αίθριος
Αίθριος
 Ανεμος από calm
Ανεμος: Απνοια
Θερμοκρασία: 12°C
Σημείο Δρόσου: 9°C
Υγρασία: 82%
Βαρόμετρο: 1023.4 hPa
Clouds: Αίθριος
Visibility: 16 km
2021/01/16 08:56 KSFO 160856Z 00000KT 10SM CLR 12/09 A3022 RMK AO2 SLP234 T01220089 50001
KE16 - San Martin, California, USA
Distance from station: ΑΝΑ 43km
Ενημερώθηκε: 16/01/2021 10:55
Αίθριος
Αίθριος
 Ανεμος από ΒΒΔ
Ανεμος: ΒΒΔ 9 km/h
Θερμοκρασία: 9°C
Wind Chill: 7°C
Σημείο Δρόσου: 7°C
Υγρασία: 87%
Βαρόμετρο: 1023.4 hPa
Clouds: Αίθριος
Visibility: 16 km
2021/01/16 08:55 KE16 160855Z AUTO 34005KT 10SM CLR 09/07 A3022 RMK AO2
 
KWVI - Watsonville, California, USA
Distance from station: ΝΝΑ 44km
Ενημερώθηκε: 16/01/2021 10:53
Αίθριος
Αίθριος
 Ανεμος από ΒΔ
Ανεμος: ΒΔ 6 km/h
Θερμοκρασία: 11°C
Σημείο Δρόσου: 7°C
Υγρασία: 77%
Βαρόμετρο: 1022 hPa
Clouds: Αίθριος
Visibility: 16 km
2021/01/16 08:53 KWVI 160853Z AUTO 32003KT 10SM CLR 11/07 A3018 RMK AO2 SLP220 T01110067 58008
KHAF - Half Moon Bay, California, USA
Distance from station: ΔΒΔ 50km
Ενημερώθηκε: 16/01/2021 10:55
Haze, Αίθριος
Haze, Αίθριος
 Ανεμος από Β
Ανεμος: Β 6 km/h
Θερμοκρασία: 11°C
Σημείο Δρόσου: 8°C
Υγρασία: 82%
Βαρόμετρο: 1023.4 hPa
Περίληψη: Haze
Clouds: Αίθριος
Visibility: 8 km
2021/01/16 08:55 KHAF 160855Z AUTO 35003KT 5SM HZ CLR 11/08 A3022 RMK AO2
 
KHWD - Hayward, California, USA
Distance from station: Β 44km
Ενημερώθηκε: 16/01/2021 10:54
Αίθριος
Αίθριος
 Ανεμος από calm
Ανεμος: Απνοια
Θερμοκρασία: 12°C
Σημείο Δρόσου: 6°C
Υγρασία: 67%
Βαρόμετρο: 1023.4 hPa
Clouds: Αίθριος
Visibility: 16 km
2021/01/16 08:54 KHWD 160854Z AUTO 00000KT 10SM CLR 12/06 A3022 RMK AO2 SLP244 T01170061 58000
KLVK - Livermore, California, USA
Distance from station: ΒΒΑ 51km
Ενημερώθηκε: 16/01/2021 10:53
Αίθριος
Αίθριος
 Ανεμος από calm
Ανεμος: Απνοια
Θερμοκρασία: 8°C
Σημείο Δρόσου: 5°C
Υγρασία: 82%
Βαρόμετρο: 1024 hPa
Clouds: Αίθριος
Visibility: 16 km
2021/01/16 08:53 KLVK 160853Z AUTO 00000KT 10SM CLR 08/05 A3024 RMK AO2 SLP236 T00780050 53000